sensor_id;sensor_type;location;lat;lon;timestamp;temperature;humidity
47618;DHT22;33336;36.728;-4.414;2023-05-24T00:01:27;19.30;99.90
47618;DHT22;33336;36.728;-4.414;2023-05-24T00:06:33;19.30;99.90
47618;DHT22;33336;36.728;-4.414;2023-05-24T00:11:37;19.00;99.90
47618;DHT22;33336;36.728;-4.414;2023-05-24T00:16:41;19.00;99.90
47618;DHT22;33336;36.728;-4.414;2023-05-24T00:21:45;18.80;99.90
47618;DHT22;33336;36.728;-4.414;2023-05-24T00:26:50;18.80;99.90
47618;DHT22;33336;36.728;-4.414;2023-05-24T00:31:52;18.60;99.90
47618;DHT22;33336;36.728;-4.414;2023-05-24T00:36:58;18.60;99.90
47618;DHT22;33336;36.728;-4.414;2023-05-24T00:42:01;19.00;99.90
47618;DHT22;33336;36.728;-4.414;2023-05-24T00:47:06;19.20;99.90
47618;DHT22;33336;36.728;-4.414;2023-05-24T00:52:10;19.30;99.90
47618;DHT22;33336;36.728;-4.414;2023-05-24T00:57:14;19.20;99.90
47618;DHT22;33336;36.728;-4.414;2023-05-24T01:02:19;19.20;99.90
47618;DHT22;33336;36.728;-4.414;2023-05-24T01:07:28;18.90;99.90
47618;DHT22;33336;36.728;-4.414;2023-05-24T01:12:44;18.60;99.90
47618;DHT22;33336;36.728;-4.414;2023-05-24T01:17:55;19.00;99.90
47618;DHT22;33336;36.728;-4.414;2023-05-24T01:23:17;19.00;99.90
47618;DHT22;33336;36.728;-4.414;2023-05-24T01:28:31;18.90;99.90
47618;DHT22;33336;36.728;-4.414;2023-05-24T01:33:34;18.70;99.90
47618;DHT22;33336;36.728;-4.414;2023-05-24T01:38:41;18.40;99.90
47618;DHT22;33336;36.728;-4.414;2023-05-24T01:43:52;18.40;99.90
47618;DHT22;33336;36.728;-4.414;2023-05-24T01:49:05;18.50;99.90
47618;DHT22;33336;36.728;-4.414;2023-05-24T01:54:11;18.60;99.90
47618;DHT22;33336;36.728;-4.414;2023-05-24T01:59:17;18.80;99.90
47618;DHT22;33336;36.728;-4.414;2023-05-24T02:04:20;18.60;99.90
47618;DHT22;33336;36.728;-4.414;2023-05-24T02:09:24;18.70;99.90
47618;DHT22;33336;36.728;-4.414;2023-05-24T02:14:28;18.90;99.90
47618;DHT22;33336;36.728;-4.414;2023-05-24T02:19:32;18.90;99.90
47618;DHT22;33336;36.728;-4.414;2023-05-24T02:24:37;19.00;99.90
47618;DHT22;33336;36.728;-4.414;2023-05-24T02:29:43;19.10;99.90
47618;DHT22;33336;36.728;-4.414;2023-05-24T02:34:46;18.60;99.90
47618;DHT22;33336;36.728;-4.414;2023-05-24T02:39:49;18.40;99.90
47618;DHT22;33336;36.728;-4.414;2023-05-24T02:44:54;18.80;99.90
47618;DHT22;33336;36.728;-4.414;2023-05-24T02:49:57;18.60;99.90
47618;DHT22;33336;36.728;-4.414;2023-05-24T02:55:00;18.70;99.90
47618;DHT22;33336;36.728;-4.414;2023-05-24T03:00:07;18.70;99.90
47618;DHT22;33336;36.728;-4.414;2023-05-24T03:05:11;18.90;99.90
47618;DHT22;33336;36.728;-4.414;2023-05-24T03:10:14;18.90;99.90
47618;DHT22;33336;36.728;-4.414;2023-05-24T03:15:18;19.00;99.90
47618;DHT22;33336;36.728;-4.414;2023-05-24T03:20:22;18.70;99.90
47618;DHT22;33336;36.728;-4.414;2023-05-24T03:25:26;18.50;99.90
47618;DHT22;33336;36.728;-4.414;2023-05-24T03:30:31;18.50;99.90
47618;DHT22;33336;36.728;-4.414;2023-05-24T03:35:34;18.40;99.90
47618;DHT22;33336;36.728;-4.414;2023-05-24T03:40:37;18.50;99.90
47618;DHT22;33336;36.728;-4.414;2023-05-24T03:45:42;18.50;99.90
47618;DHT22;33336;36.728;-4.414;2023-05-24T03:50:46;18.10;99.90
47618;DHT22;33336;36.728;-4.414;2023-05-24T03:55:49;18.40;99.90
47618;DHT22;33336;36.728;-4.414;2023-05-24T04:00:54;18.30;99.90
47618;DHT22;33336;36.728;-4.414;2023-05-24T04:05:57;18.10;99.90
47618;DHT22;33336;36.728;-4.414;2023-05-24T04:11:01;18.20;99.90
47618;DHT22;33336;36.728;-4.414;2023-05-24T04:16:05;18.30;99.90
47618;DHT22;33336;36.728;-4.414;2023-05-24T04:21:10;18.60;99.90
47618;DHT22;33336;36.728;-4.414;2023-05-24T04:26:13;18.50;99.90
47618;DHT22;33336;36.728;-4.414;2023-05-24T04:31:20;18.50;99.90
47618;DHT22;33336;36.728;-4.414;2023-05-24T04:36:23;18.50;99.90
47618;DHT22;33336;36.728;-4.414;2023-05-24T04:41:27;18.60;99.90
47618;DHT22;33336;36.728;-4.414;2023-05-24T04:46:33;18.50;99.90
47618;DHT22;33336;36.728;-4.414;2023-05-24T04:51:40;18.70;99.90
47618;DHT22;33336;36.728;-4.414;2023-05-24T04:56:43;18.40;99.90
47618;DHT22;33336;36.728;-4.414;2023-05-24T05:01:48;18.60;99.90
47618;DHT22;33336;36.728;-4.414;2023-05-24T05:06:51;18.80;99.90
47618;DHT22;33336;36.728;-4.414;2023-05-24T05:11:55;18.90;99.90
47618;DHT22;33336;36.728;-4.414;2023-05-24T05:16:59;18.70;99.90
47618;DHT22;33336;36.728;-4.414;2023-05-24T05:22:04;18.90;99.90
47618;DHT22;33336;36.728;-4.414;2023-05-24T05:27:07;18.90;99.90
47618;DHT22;33336;36.728;-4.414;2023-05-24T05:32:12;18.90;99.90
47618;DHT22;33336;36.728;-4.414;2023-05-24T05:37:15;18.90;99.90
47618;DHT22;33336;36.728;-4.414;2023-05-24T05:42:19;18.90;99.90
47618;DHT22;33336;36.728;-4.414;2023-05-24T05:47:23;18.90;99.90
47618;DHT22;33336;36.728;-4.414;2023-05-24T05:52:26;18.80;99.90
47618;DHT22;33336;36.728;-4.414;2023-05-24T05:57:29;18.70;99.90
47618;DHT22;33336;36.728;-4.414;2023-05-24T06:02:34;18.70;99.90
47618;DHT22;33336;36.728;-4.414;2023-05-24T06:07:36;18.90;99.90
47618;DHT22;33336;36.728;-4.414;2023-05-24T06:12:40;19.10;99.90
47618;DHT22;33336;36.728;-4.414;2023-05-24T06:17:45;18.90;99.90
47618;DHT22;33336;36.728;-4.414;2023-05-24T06:22:49;19.20;99.90
47618;DHT22;33336;36.728;-4.414;2023-05-24T06:27:52;19.00;99.90
47618;DHT22;33336;36.728;-4.414;2023-05-24T06:33:00;19.40;99.90
47618;DHT22;33336;36.728;-4.414;2023-05-24T06:38:03;19.80;99.90
47618;DHT22;33336;36.728;-4.414;2023-05-24T06:43:06;19.90;99.90
47618;DHT22;33336;36.728;-4.414;2023-05-24T06:48:11;19.80;99.90
47618;DHT22;33336;36.728;-4.414;2023-05-24T06:53:14;19.90;99.90
47618;DHT22;33336;36.728;-4.414;2023-05-24T06:58:17;20.00;99.90
47618;DHT22;33336;36.728;-4.414;2023-05-24T07:03:22;20.00;99.90
47618;DHT22;33336;36.728;-4.414;2023-05-24T07:08:26;20.20;99.90
47618;DHT22;33336;36.728;-4.414;2023-05-24T07:13:29;20.00;99.90
47618;DHT22;33336;36.728;-4.414;2023-05-24T07:18:33;20.00;99.90
47618;DHT22;33336;36.728;-4.414;2023-05-24T07:23:37;20.20;99.90
47618;DHT22;33336;36.728;-4.414;2023-05-24T07:28:40;20.20;99.90
47618;DHT22;33336;36.728;-4.414;2023-05-24T07:33:45;20.30;99.90
47618;DHT22;33336;36.728;-4.414;2023-05-24T07:38:47;20.60;99.90
47618;DHT22;33336;36.728;-4.414;2023-05-24T07:43:51;20.70;99.90
47618;DHT22;33336;36.728;-4.414;2023-05-24T07:48:56;20.50;99.90
47618;DHT22;33336;36.728;-4.414;2023-05-24T07:53:59;20.80;99.90
47618;DHT22;33336;36.728;-4.414;2023-05-24T07:59:02;21.10;99.90
47618;DHT22;33336;36.728;-4.414;2023-05-24T08:04:07;20.80;99.90
47618;DHT22;33336;36.728;-4.414;2023-05-24T08:09:10;20.80;99.90
47618;DHT22;33336;36.728;-4.414;2023-05-24T08:14:13;21.00;99.90
47618;DHT22;33336;36.728;-4.414;2023-05-24T08:19:17;21.00;99.90
47618;DHT22;33336;36.728;-4.414;2023-05-24T08:24:21;21.00;99.90
47618;DHT22;33336;36.728;-4.414;2023-05-24T08:29:24;20.60;99.90
47618;DHT22;33336;36.728;-4.414;2023-05-24T08:34:30;20.90;99.90
47618;DHT22;33336;36.728;-4.414;2023-05-24T08:39:32;20.80;99.90
47618;DHT22;33336;36.728;-4.414;2023-05-24T08:44:40;21.30;99.90
47618;DHT22;33336;36.728;-4.414;2023-05-24T08:49:50;21.50;99.90
47618;DHT22;33336;36.728;-4.414;2023-05-24T08:54:53;21.70;99.90
47618;DHT22;33336;36.728;-4.414;2023-05-24T08:59:57;21.40;99.90
47618;DHT22;33336;36.728;-4.414;2023-05-24T09:05:04;21.40;99.90
47618;DHT22;33336;36.728;-4.414;2023-05-24T09:10:08;21.10;99.90
47618;DHT22;33336;36.728;-4.414;2023-05-24T09:15:12;21.20;99.90
47618;DHT22;33336;36.728;-4.414;2023-05-24T09:20:17;20.90;99.90
47618;DHT22;33336;36.728;-4.414;2023-05-24T09:25:20;21.00;99.90
47618;DHT22;33336;36.728;-4.414;2023-05-24T09:30:23;21.40;99.90
47618;DHT22;33336;36.728;-4.414;2023-05-24T09:35:28;21.20;99.90
47618;DHT22;33336;36.728;-4.414;2023-05-24T09:40:31;21.50;99.90
47618;DHT22;33336;36.728;-4.414;2023-05-24T09:45:40;22.10;99.90
47618;DHT22;33336;36.728;-4.414;2023-05-24T09:50:57;22.40;99.90
47618;DHT22;33336;36.728;-4.414;2023-05-24T09:56:03;22.90;99.90
47618;DHT22;33336;36.728;-4.414;2023-05-24T10:01:08;22.10;99.90
47618;DHT22;33336;36.728;-4.414;2023-05-24T10:06:15;22.50;99.90
47618;DHT22;33336;36.728;-4.414;2023-05-24T10:11:18;22.90;99.90
47618;DHT22;33336;36.728;-4.414;2023-05-24T10:16:21;22.80;99.90
47618;DHT22;33336;36.728;-4.414;2023-05-24T10:21:28;22.80;99.90
47618;DHT22;33336;36.728;-4.414;2023-05-24T10:26:34;23.10;99.90
47618;DHT22;33336;36.728;-4.414;2023-05-24T10:31:39;22.80;99.90
47618;DHT22;33336;36.728;-4.414;2023-05-24T10:36:45;22.70;99.90
47618;DHT22;33336;36.728;-4.414;2023-05-24T10:41:48;23.10;99.90
47618;DHT22;33336;36.728;-4.414;2023-05-24T10:47:08;22.90;99.90
47618;DHT22;33336;36.728;-4.414;2023-05-24T10:52:13;23.60;99.90
47618;DHT22;33336;36.728;-4.414;2023-05-24T10:57:22;23.10;99.90
47618;DHT22;33336;36.728;-4.414;2023-05-24T11:02:27;23.20;99.90
47618;DHT22;33336;36.728;-4.414;2023-05-24T11:07:41;23.60;99.90
47618;DHT22;33336;36.728;-4.414;2023-05-24T11:12:44;23.70;99.90
47618;DHT22;33336;36.728;-4.414;2023-05-24T11:18:14;23.50;99.90
47618;DHT22;33336;36.728;-4.414;2023-05-24T11:23:18;23.30;99.90
47618;DHT22;33336;36.728;-4.414;2023-05-24T11:28:22;22.50;99.90
47618;DHT22;33336;36.728;-4.414;2023-05-24T11:33:25;22.30;99.90
47618;DHT22;33336;36.728;-4.414;2023-05-24T11:38:30;23.40;99.90
47618;DHT22;33336;36.728;-4.414;2023-05-24T11:43:36;24.00;99.90
47618;DHT22;33336;36.728;-4.414;2023-05-24T11:48:42;23.70;99.90
47618;DHT22;33336;36.728;-4.414;2023-05-24T11:53:47;24.10;99.90
47618;DHT22;33336;36.728;-4.414;2023-05-24T11:59:00;23.50;99.90
47618;DHT22;33336;36.728;-4.414;2023-05-24T12:04:06;23.70;99.90
47618;DHT22;33336;36.728;-4.414;2023-05-24T12:09:12;24.20;99.90
47618;DHT22;33336;36.728;-4.414;2023-05-24T12:14:16;24.70;99.90
47618;DHT22;33336;36.728;-4.414;2023-05-24T12:19:21;24.00;99.90
47618;DHT22;33336;36.728;-4.414;2023-05-24T12:24:28;24.60;99.90
47618;DHT22;33336;36.728;-4.414;2023-05-24T12:29:34;24.30;99.90
47618;DHT22;33336;36.728;-4.414;2023-05-24T12:34:37;24.30;99.90
47618;DHT22;33336;36.728;-4.414;2023-05-24T12:39:44;24.10;99.90
47618;DHT22;33336;36.728;-4.414;2023-05-24T12:44:46;24.90;99.90
47618;DHT22;33336;36.728;-4.414;2023-05-24T12:49:53;24.90;99.90
47618;DHT22;33336;36.728;-4.414;2023-05-24T12:54:58;24.40;99.90
47618;DHT22;33336;36.728;-4.414;2023-05-24T13:00:02;23.80;99.90
47618;DHT22;33336;36.728;-4.414;2023-05-24T13:05:07;25.10;99.90
47618;DHT22;33336;36.728;-4.414;2023-05-24T13:10:13;25.00;99.90
47618;DHT22;33336;36.728;-4.414;2023-05-24T13:15:16;25.70;99.90
47618;DHT22;33336;36.728;-4.414;2023-05-24T13:20:20;25.60;99.90
47618;DHT22;33336;36.728;-4.414;2023-05-24T13:25:25;24.70;99.90
47618;DHT22;33336;36.728;-4.414;2023-05-24T13:30:29;24.30;99.90
47618;DHT22;33336;36.728;-4.414;2023-05-24T13:35:32;24.90;99.90
47618;DHT22;33336;36.728;-4.414;2023-05-24T13:40:37;25.20;99.90
47618;DHT22;33336;36.728;-4.414;2023-05-24T13:45:39;24.90;99.90
47618;DHT22;33336;36.728;-4.414;2023-05-24T13:50:43;25.00;99.90
47618;DHT22;33336;36.728;-4.414;2023-05-24T13:55:47;25.50;99.90
47618;DHT22;33336;36.728;-4.414;2023-05-24T14:00:51;25.50;99.90
47618;DHT22;33336;36.728;-4.414;2023-05-24T14:05:54;25.50;99.90
47618;DHT22;33336;36.728;-4.414;2023-05-24T14:10:58;25.50;99.40
47618;DHT22;33336;36.728;-4.414;2023-05-24T14:16:01;25.80;99.90
47618;DHT22;33336;36.728;-4.414;2023-05-24T14:21:05;26.40;99.20
47618;DHT22;33336;36.728;-4.414;2023-05-24T14:26:09;26.90;99.20
47618;DHT22;33336;36.728;-4.414;2023-05-24T14:31:13;28.00;98.50
47618;DHT22;33336;36.728;-4.414;2023-05-24T14:36:16;27.90;98.20
47618;DHT22;33336;36.728;-4.414;2023-05-24T14:41:22;28.20;97.10
47618;DHT22;33336;36.728;-4.414;2023-05-24T14:46:24;28.50;96.90
47618;DHT22;33336;36.728;-4.414;2023-05-24T14:51:28;28.20;96.10
47618;DHT22;33336;36.728;-4.414;2023-05-24T14:56:33;27.60;96.40
47618;DHT22;33336;36.728;-4.414;2023-05-24T15:01:36;28.00;97.70
47618;DHT22;33336;36.728;-4.414;2023-05-24T15:06:39;27.70;97.50
47618;DHT22;33336;36.728;-4.414;2023-05-24T15:11:43;26.90;97.40
47618;DHT22;33336;36.728;-4.414;2023-05-24T15:16:47;26.90;98.00
47618;DHT22;33336;36.728;-4.414;2023-05-24T15:21:50;27.60;97.80
47618;DHT22;33336;36.728;-4.414;2023-05-24T15:26:54;27.90;97.80
47618;DHT22;33336;36.728;-4.414;2023-05-24T15:31:58;27.40;97.10
47618;DHT22;33336;36.728;-4.414;2023-05-24T15:37:01;28.40;96.50
47618;DHT22;33336;36.728;-4.414;2023-05-24T15:42:07;28.60;96.00
47618;DHT22;33336;36.728;-4.414;2023-05-24T15:47:09;28.50;95.90
47618;DHT22;33336;36.728;-4.414;2023-05-24T15:52:12;32.20;95.10
47618;DHT22;33336;36.728;-4.414;2023-05-24T15:57:17;36.70;91.30
47618;DHT22;33336;36.728;-4.414;2023-05-24T16:02:19;38.20;88.10
47618;DHT22;33336;36.728;-4.414;2023-05-24T16:07:22;37.30;86.10
47618;DHT22;33336;36.728;-4.414;2023-05-24T16:12:27;38.80;83.80
47618;DHT22;33336;36.728;-4.414;2023-05-24T16:17:30;38.40;80.90
47618;DHT22;33336;36.728;-4.414;2023-05-24T16:22:35;40.40;81.00
47618;DHT22;33336;36.728;-4.414;2023-05-24T16:27:41;40.10;76.50
47618;DHT22;33336;36.728;-4.414;2023-05-24T16:32:44;39.50;77.50
47618;DHT22;33336;36.728;-4.414;2023-05-24T16:37:47;40.00;78.60
47618;DHT22;33336;36.728;-4.414;2023-05-24T16:42:51;42.50;76.50
47618;DHT22;33336;36.728;-4.414;2023-05-24T16:47:54;45.10;73.10
47618;DHT22;33336;36.728;-4.414;2023-05-24T16:52:58;44.30;71.20
47618;DHT22;33336;36.728;-4.414;2023-05-24T16:58:03;45.50;71.80
47618;DHT22;33336;36.728;-4.414;2023-05-24T17:03:05;43.80;69.20
47618;DHT22;33336;36.728;-4.414;2023-05-24T17:08:08;46.80;69.10
47618;DHT22;33336;36.728;-4.414;2023-05-24T17:13:13;47.40;67.40
47618;DHT22;33336;36.728;-4.414;2023-05-24T17:18:16;48.10;65.50
47618;DHT22;33336;36.728;-4.414;2023-05-24T17:23:20;44.40;65.80
47618;DHT22;33336;36.728;-4.414;2023-05-24T17:28:26;42.40;67.30
47618;DHT22;33336;36.728;-4.414;2023-05-24T17:33:30;43.50;66.20
47618;DHT22;33336;36.728;-4.414;2023-05-24T17:38:33;41.30;67.80
47618;DHT22;33336;36.728;-4.414;2023-05-24T17:43:39;42.50;66.50
47618;DHT22;33336;36.728;-4.414;2023-05-24T17:48:42;43.30;66.50
47618;DHT22;33336;36.728;-4.414;2023-05-24T17:53:46;41.70;65.10
47618;DHT22;33336;36.728;-4.414;2023-05-24T17:58:51;40.80;66.70
47618;DHT22;33336;36.728;-4.414;2023-05-24T18:03:53;41.30;67.20
47618;DHT22;33336;36.728;-4.414;2023-05-24T18:08:56;38.50;67.00
47618;DHT22;33336;36.728;-4.414;2023-05-24T18:14:01;37.00;69.00
47618;DHT22;33336;36.728;-4.414;2023-05-24T18:19:05;34.40;71.90
47618;DHT22;33336;36.728;-4.414;2023-05-24T18:24:09;34.10;73.40
47618;DHT22;33336;36.728;-4.414;2023-05-24T18:29:13;33.20;73.50
47618;DHT22;33336;36.728;-4.414;2023-05-24T18:34:17;34.80;73.20
47618;DHT22;33336;36.728;-4.414;2023-05-24T18:39:20;34.50;72.10
47618;DHT22;33336;36.728;-4.414;2023-05-24T18:44:24;34.50;73.30
47618;DHT22;33336;36.728;-4.414;2023-05-24T18:49:27;33.70;73.80
47618;DHT22;33336;36.728;-4.414;2023-05-24T18:54:30;33.90;73.60
47618;DHT22;33336;36.728;-4.414;2023-05-24T18:59:35;33.40;74.10
47618;DHT22;33336;36.728;-4.414;2023-05-24T19:04:38;33.30;73.50
47618;DHT22;33336;36.728;-4.414;2023-05-24T19:09:42;32.30;75.10
47618;DHT22;33336;36.728;-4.414;2023-05-24T19:14:46;30.50;76.70
47618;DHT22;33336;36.728;-4.414;2023-05-24T19:19:50;28.30;80.90
47618;DHT22;33336;36.728;-4.414;2023-05-24T19:24:53;27.20;83.40
47618;DHT22;33336;36.728;-4.414;2023-05-24T19:29:59;26.30;86.00
47618;DHT22;33336;36.728;-4.414;2023-05-24T19:35:01;26.50;86.20
47618;DHT22;33336;36.728;-4.414;2023-05-24T19:40:06;26.20;87.10
47618;DHT22;33336;36.728;-4.414;2023-05-24T19:45:14;25.90;88.70
47618;DHT22;33336;36.728;-4.414;2023-05-24T19:50:23;25.90;89.00
47618;DHT22;33336;36.728;-4.414;2023-05-24T19:55:28;25.10;90.90
47618;DHT22;33336;36.728;-4.414;2023-05-24T20:00:33;25.10;91.20
47618;DHT22;33336;36.728;-4.414;2023-05-24T20:05:35;24.90;91.80
47618;DHT22;33336;36.728;-4.414;2023-05-24T20:10:39;24.90;92.00
47618;DHT22;33336;36.728;-4.414;2023-05-24T20:15:43;24.90;92.30
47618;DHT22;33336;36.728;-4.414;2023-05-24T20:20:47;24.90;92.40
47618;DHT22;33336;36.728;-4.414;2023-05-24T20:25:50;24.50;93.20
47618;DHT22;33336;36.728;-4.414;2023-05-24T20:30:55;24.10;94.30
47618;DHT22;33336;36.728;-4.414;2023-05-24T20:35:58;23.80;95.00
47618;DHT22;33336;36.728;-4.414;2023-05-24T20:41:02;22.70;97.90
47618;DHT22;33336;36.728;-4.414;2023-05-24T20:46:07;22.80;98.30
47618;DHT22;33336;36.728;-4.414;2023-05-24T20:51:10;23.00;98.20
47618;DHT22;33336;36.728;-4.414;2023-05-24T20:56:13;22.90;98.50
47618;DHT22;33336;36.728;-4.414;2023-05-24T21:01:19;23.10;98.40
47618;DHT22;33336;36.728;-4.414;2023-05-24T21:06:22;22.50;99.50
47618;DHT22;33336;36.728;-4.414;2023-05-24T21:11:25;23.00;98.90
47618;DHT22;33336;36.728;-4.414;2023-05-24T21:16:30;23.10;98.90
47618;DHT22;33336;36.728;-4.414;2023-05-24T21:21:33;22.80;99.50
47618;DHT22;33336;36.728;-4.414;2023-05-24T21:26:36;22.80;99.70
47618;DHT22;33336;36.728;-4.414;2023-05-24T21:31:42;22.80;99.90
47618;DHT22;33336;36.728;-4.414;2023-05-24T21:36:45;22.90;99.60
47618;DHT22;33336;36.728;-4.414;2023-05-24T21:41:48;23.00;99.10
47618;DHT22;33336;36.728;-4.414;2023-05-24T21:46:52;22.90;99.70
47618;DHT22;33336;36.728;-4.414;2023-05-24T21:51:56;22.80;99.90
47618;DHT22;33336;36.728;-4.414;2023-05-24T21:56:59;22.70;99.90
47618;DHT22;33336;36.728;-4.414;2023-05-24T22:02:04;22.50;99.90
47618;DHT22;33336;36.728;-4.414;2023-05-24T22:07:06;22.50;99.90
47618;DHT22;33336;36.728;-4.414;2023-05-24T22:12:10;22.60;99.90
47618;DHT22;33336;36.728;-4.414;2023-05-24T22:17:15;22.70;99.90
47618;DHT22;33336;36.728;-4.414;2023-05-24T22:22:18;22.60;99.90
47618;DHT22;33336;36.728;-4.414;2023-05-24T22:27:23;22.60;99.90
47618;DHT22;33336;36.728;-4.414;2023-05-24T22:32:27;22.60;99.90
47618;DHT22;33336;36.728;-4.414;2023-05-24T22:37:30;22.60;99.90
47618;DHT22;33336;36.728;-4.414;2023-05-24T22:42:34;22.70;99.90
47618;DHT22;33336;36.728;-4.414;2023-05-24T22:47:38;22.50;99.90
47618;DHT22;33336;36.728;-4.414;2023-05-24T22:52:42;22.20;99.90
47618;DHT22;33336;36.728;-4.414;2023-05-24T22:57:46;22.20;99.90
47618;DHT22;33336;36.728;-4.414;2023-05-24T23:02:51;22.10;99.90
47618;DHT22;33336;36.728;-4.414;2023-05-24T23:07:54;22.10;99.90
47618;DHT22;33336;36.728;-4.414;2023-05-24T23:12:58;22.20;99.90
47618;DHT22;33336;36.728;-4.414;2023-05-24T23:18:02;22.20;99.90
47618;DHT22;33336;36.728;-4.414;2023-05-24T23:23:07;21.70;99.90
47618;DHT22;33336;36.728;-4.414;2023-05-24T23:28:10;21.70;99.90
47618;DHT22;33336;36.728;-4.414;2023-05-24T23:33:14;21.70;99.90
47618;DHT22;33336;36.728;-4.414;2023-05-24T23:38:17;21.70;99.90
47618;DHT22;33336;36.728;-4.414;2023-05-24T23:43:20;21.70;99.90
47618;DHT22;33336;36.728;-4.414;2023-05-24T23:48:24;21.60;99.90
47618;DHT22;33336;36.728;-4.414;2023-05-24T23:53:28;21.70;99.90
47618;DHT22;33336;36.728;-4.414;2023-05-24T23:58:31;21.60;99.90
